sensor_id;sensor_type;location;lat;lon;timestamp;temperature;humidity
70726;DHT22;58304;53.104;6.022;2022-10-04T00:01:56;12.50;99.90
70726;DHT22;58304;53.104;6.022;2022-10-04T00:07:17;12.50;99.90
70726;DHT22;58304;53.104;6.022;2022-10-04T00:09:50;12.50;99.90
70726;DHT22;58304;53.104;6.022;2022-10-04T00:12:23;12.40;99.90
70726;DHT22;58304;53.104;6.022;2022-10-04T00:14:52;12.40;99.90
70726;DHT22;58304;53.104;6.022;2022-10-04T00:17:30;12.30;99.90
70726;DHT22;58304;53.104;6.022;2022-10-04T00:19:57;12.30;99.90
70726;DHT22;58304;53.104;6.022;2022-10-04T00:22:28;12.30;99.90
70726;DHT22;58304;53.104;6.022;2022-10-04T00:27:33;12.30;99.90
70726;DHT22;58304;53.104;6.022;2022-10-04T00:33:01;12.30;99.90
70726;DHT22;58304;53.104;6.022;2022-10-04T00:37:56;12.40;99.90
70726;DHT22;58304;53.104;6.022;2022-10-04T00:40:27;12.40;99.90
70726;DHT22;58304;53.104;6.022;2022-10-04T00:43:07;12.40;99.90
70726;DHT22;58304;53.104;6.022;2022-10-04T00:45:41;12.40;99.90
70726;DHT22;58304;53.104;6.022;2022-10-04T00:51:09;12.40;99.90
70726;DHT22;58304;53.104;6.022;2022-10-04T00:54:17;12.30;99.90
70726;DHT22;58304;53.104;6.022;2022-10-04T00:56:50;12.30;99.90
70726;DHT22;58304;53.104;6.022;2022-10-04T01:01:56;12.40;99.90
70726;DHT22;58304;53.104;6.022;2022-10-04T01:07:04;12.40;99.90
70726;DHT22;58304;53.104;6.022;2022-10-04T01:09:34;12.40;99.90
70726;DHT22;58304;53.104;6.022;2022-10-04T01:12:06;12.30;99.90
70726;DHT22;58304;53.104;6.022;2022-10-04T01:14:49;12.40;99.90
70726;DHT22;58304;53.104;6.022;2022-10-04T01:17:16;12.40;99.90
70726;DHT22;58304;53.104;6.022;2022-10-04T01:19:50;12.40;99.90
70726;DHT22;58304;53.104;6.022;2022-10-04T01:22:31;12.40;99.90
70726;DHT22;58304;53.104;6.022;2022-10-04T01:24:57;12.40;99.90
70726;DHT22;58304;53.104;6.022;2022-10-04T01:29:56;12.40;99.90
70726;DHT22;58304;53.104;6.022;2022-10-04T01:32:22;12.40;99.90
70726;DHT22;58304;53.104;6.022;2022-10-04T01:34:48;12.30;99.90
70726;DHT22;58304;53.104;6.022;2022-10-04T01:37:13;12.30;99.90
70726;DHT22;58304;53.104;6.022;2022-10-04T01:39:39;12.30;99.90
70726;DHT22;58304;53.104;6.022;2022-10-04T01:42:22;12.20;99.90
70726;DHT22;58304;53.104;6.022;2022-10-04T01:47:42;12.20;99.90
70726;DHT22;58304;53.104;6.022;2022-10-04T01:50:12;12.10;99.90
70726;DHT22;58304;53.104;6.022;2022-10-04T01:52:43;12.00;99.90
70726;DHT22;58304;53.104;6.022;2022-10-04T01:55:14;12.00;99.90
70726;DHT22;58304;53.104;6.022;2022-10-04T01:57:48;11.90;99.90
70726;DHT22;58304;53.104;6.022;2022-10-04T02:00:15;11.90;99.90
70726;DHT22;58304;53.104;6.022;2022-10-04T02:05:23;11.70;99.90
70726;DHT22;58304;53.104;6.022;2022-10-04T02:07:51;11.70;99.90
70726;DHT22;58304;53.104;6.022;2022-10-04T02:10:19;11.60;99.90
70726;DHT22;58304;53.104;6.022;2022-10-04T02:12:48;11.60;99.90
70726;DHT22;58304;53.104;6.022;2022-10-04T02:15:16;11.60;99.90
70726;DHT22;58304;53.104;6.022;2022-10-04T02:17:43;11.60;99.90
70726;DHT22;58304;53.104;6.022;2022-10-04T02:20:15;11.50;99.90
70726;DHT22;58304;53.104;6.022;2022-10-04T02:22:41;11.50;99.90
70726;DHT22;58304;53.104;6.022;2022-10-04T02:25:08;11.40;99.90
70726;DHT22;58304;53.104;6.022;2022-10-04T02:27:34;11.30;99.90
70726;DHT22;58304;53.104;6.022;2022-10-04T02:30:04;11.20;99.90
70726;DHT22;58304;53.104;6.022;2022-10-04T02:32:31;11.20;99.90
70726;DHT22;58304;53.104;6.022;2022-10-04T02:35:17;11.10;99.90
70726;DHT22;58304;53.104;6.022;2022-10-04T02:37:44;11.10;99.90
70726;DHT22;58304;53.104;6.022;2022-10-04T02:40:17;11.10;99.90
70726;DHT22;58304;53.104;6.022;2022-10-04T02:43:17;11.00;99.90
70726;DHT22;58304;53.104;6.022;2022-10-04T02:45:45;11.00;99.90
70726;DHT22;58304;53.104;6.022;2022-10-04T02:48:27;10.90;99.90
70726;DHT22;58304;53.104;6.022;2022-10-04T02:50:57;10.80;99.90
70726;DHT22;58304;53.104;6.022;2022-10-04T02:53:31;10.80;99.90
70726;DHT22;58304;53.104;6.022;2022-10-04T02:56:00;10.70;99.90
70726;DHT22;58304;53.104;6.022;2022-10-04T02:58:27;10.70;99.90
70726;DHT22;58304;53.104;6.022;2022-10-04T03:00:58;10.70;99.90
70726;DHT22;58304;53.104;6.022;2022-10-04T03:03:36;10.70;99.90
70726;DHT22;58304;53.104;6.022;2022-10-04T03:06:08;10.60;99.90
70726;DHT22;58304;53.104;6.022;2022-10-04T03:08:50;10.60;99.90
70726;DHT22;58304;53.104;6.022;2022-10-04T03:11:19;10.60;99.90
70726;DHT22;58304;53.104;6.022;2022-10-04T03:13:48;10.50;99.90
70726;DHT22;58304;53.104;6.022;2022-10-04T03:16:15;10.50;99.90
70726;DHT22;58304;53.104;6.022;2022-10-04T03:18:42;10.50;99.90
70726;DHT22;58304;53.104;6.022;2022-10-04T03:21:11;10.40;99.90
70726;DHT22;58304;53.104;6.022;2022-10-04T03:23:39;10.40;99.90
70726;DHT22;58304;53.104;6.022;2022-10-04T03:26:20;10.40;99.90
70726;DHT22;58304;53.104;6.022;2022-10-04T03:28:48;10.40;99.90
70726;DHT22;58304;53.104;6.022;2022-10-04T03:31:14;10.30;99.90
70726;DHT22;58304;53.104;6.022;2022-10-04T03:33:42;10.30;99.90
70726;DHT22;58304;53.104;6.022;2022-10-04T03:36:12;10.30;99.90
70726;DHT22;58304;53.104;6.022;2022-10-04T03:38:39;10.30;99.90
70726;DHT22;58304;53.104;6.022;2022-10-04T03:41:05;10.30;99.90
70726;DHT22;58304;53.104;6.022;2022-10-04T03:43:32;10.40;99.90
70726;DHT22;58304;53.104;6.022;2022-10-04T03:46:02;10.40;99.90
70726;DHT22;58304;53.104;6.022;2022-10-04T03:48:59;10.40;99.90
70726;DHT22;58304;53.104;6.022;2022-10-04T03:51:25;10.30;99.90
70726;DHT22;58304;53.104;6.022;2022-10-04T03:53:53;10.30;99.90
70726;DHT22;58304;53.104;6.022;2022-10-04T03:56:31;10.40;99.90
70726;DHT22;58304;53.104;6.022;2022-10-04T03:58:58;10.30;99.90
70726;DHT22;58304;53.104;6.022;2022-10-04T04:01:38;10.40;99.90
70726;DHT22;58304;53.104;6.022;2022-10-04T04:04:26;10.40;99.90
70726;DHT22;58304;53.104;6.022;2022-10-04T04:07:00;10.40;99.90
70726;DHT22;58304;53.104;6.022;2022-10-04T04:09:47;10.40;99.90
70726;DHT22;58304;53.104;6.022;2022-10-04T04:12:27;10.40;99.90
70726;DHT22;58304;53.104;6.022;2022-10-04T04:14:58;10.40;99.90
70726;DHT22;58304;53.104;6.022;2022-10-04T04:19:53;10.40;99.90
70726;DHT22;58304;53.104;6.022;2022-10-04T04:22:19;10.40;99.90
70726;DHT22;58304;53.104;6.022;2022-10-04T04:24:46;10.40;99.90
70726;DHT22;58304;53.104;6.022;2022-10-04T04:27:12;10.40;99.90
70726;DHT22;58304;53.104;6.022;2022-10-04T04:29:53;10.30;99.90
70726;DHT22;58304;53.104;6.022;2022-10-04T04:32:24;10.30;99.90
70726;DHT22;58304;53.104;6.022;2022-10-04T04:35:00;10.30;99.90
70726;DHT22;58304;53.104;6.022;2022-10-04T04:37:35;10.20;99.90
70726;DHT22;58304;53.104;6.022;2022-10-04T04:40:18;10.20;99.90
70726;DHT22;58304;53.104;6.022;2022-10-04T04:42:45;10.20;99.90
70726;DHT22;58304;53.104;6.022;2022-10-04T04:45:15;10.10;99.90
70726;DHT22;58304;53.104;6.022;2022-10-04T04:47:47;10.10;99.90
70726;DHT22;58304;53.104;6.022;2022-10-04T04:50:15;10.10;99.90
70726;DHT22;58304;53.104;6.022;2022-10-04T04:52:45;10.10;99.90
70726;DHT22;58304;53.104;6.022;2022-10-04T04:55:21;10.10;99.90
70726;DHT22;58304;53.104;6.022;2022-10-04T04:57:49;10.10;99.90
70726;DHT22;58304;53.104;6.022;2022-10-04T05:00:20;10.10;99.90
70726;DHT22;58304;53.104;6.022;2022-10-04T05:02:58;10.10;99.90
70726;DHT22;58304;53.104;6.022;2022-10-04T05:05:32;10.00;99.90
70726;DHT22;58304;53.104;6.022;2022-10-04T05:08:20;10.00;99.90
70726;DHT22;58304;53.104;6.022;2022-10-04T05:13:46;10.00;99.90
70726;DHT22;58304;53.104;6.022;2022-10-04T05:16:25;10.00;99.90
70726;DHT22;58304;53.104;6.022;2022-10-04T05:18:57;9.90;99.90
70726;DHT22;58304;53.104;6.022;2022-10-04T05:21:31;9.90;99.90
70726;DHT22;58304;53.104;6.022;2022-10-04T05:24:49;9.90;99.90
70726;DHT22;58304;53.104;6.022;2022-10-04T05:26:58;9.90;99.90
70726;DHT22;58304;53.104;6.022;2022-10-04T05:29:27;9.90;99.90
70726;DHT22;58304;53.104;6.022;2022-10-04T05:32:04;9.90;99.90
70726;DHT22;58304;53.104;6.022;2022-10-04T05:34:41;9.90;99.90
70726;DHT22;58304;53.104;6.022;2022-10-04T05:37:21;9.90;99.90
70726;DHT22;58304;53.104;6.022;2022-10-04T05:42:35;9.90;99.90
70726;DHT22;58304;53.104;6.022;2022-10-04T05:45:29;9.90;99.90
70726;DHT22;58304;53.104;6.022;2022-10-04T05:47:57;9.90;99.90
70726;DHT22;58304;53.104;6.022;2022-10-04T05:50:39;9.90;99.90
70726;DHT22;58304;53.104;6.022;2022-10-04T05:53:29;9.90;99.90
70726;DHT22;58304;53.104;6.022;2022-10-04T05:56:23;10.00;99.90
70726;DHT22;58304;53.104;6.022;2022-10-04T06:04:31;10.00;99.90
70726;DHT22;58304;53.104;6.022;2022-10-04T06:07:31;10.00;99.90
70726;DHT22;58304;53.104;6.022;2022-10-04T06:10:27;10.10;99.90
70726;DHT22;58304;53.104;6.022;2022-10-04T06:13:19;10.10;99.90
70726;DHT22;58304;53.104;6.022;2022-10-04T06:23:17;10.30;99.90
70726;DHT22;58304;53.104;6.022;2022-10-04T06:25:46;10.40;99.90
70726;DHT22;58304;53.104;6.022;2022-10-04T06:28:33;10.40;99.90
70726;DHT22;58304;53.104;6.022;2022-10-04T06:31:14;10.50;99.90
70726;DHT22;58304;53.104;6.022;2022-10-04T06:36:32;10.90;99.90
70726;DHT22;58304;53.104;6.022;2022-10-04T06:39:09;11.20;99.90
70726;DHT22;58304;53.104;6.022;2022-10-04T06:42:03;11.60;99.90
70726;DHT22;58304;53.104;6.022;2022-10-04T06:49:59;13.00;99.90
70726;DHT22;58304;53.104;6.022;2022-10-04T06:52:51;13.10;99.90
70726;DHT22;58304;53.104;6.022;2022-10-04T06:55:48;13.00;99.90
70726;DHT22;58304;53.104;6.022;2022-10-04T07:06:39;13.80;99.90
70726;DHT22;58304;53.104;6.022;2022-10-04T07:09:15;13.80;99.90
70726;DHT22;58304;53.104;6.022;2022-10-04T07:11:48;14.10;99.90
70726;DHT22;58304;53.104;6.022;2022-10-04T07:14:23;14.70;99.90
70726;DHT22;58304;53.104;6.022;2022-10-04T07:17:00;16.00;99.90
70726;DHT22;58304;53.104;6.022;2022-10-04T07:19:36;17.40;99.90
70726;DHT22;58304;53.104;6.022;2022-10-04T07:25:03;18.40;99.90
70726;DHT22;58304;53.104;6.022;2022-10-04T07:30:15;17.70;99.90
70726;DHT22;58304;53.104;6.022;2022-10-04T07:32:47;17.50;99.90
70726;DHT22;58304;53.104;6.022;2022-10-04T07:37:57;16.80;99.90
70726;DHT22;58304;53.104;6.022;2022-10-04T07:40:33;16.70;99.90
70726;DHT22;58304;53.104;6.022;2022-10-04T07:43:07;16.40;99.90
70726;DHT22;58304;53.104;6.022;2022-10-04T07:45:38;16.20;99.90
70726;DHT22;58304;53.104;6.022;2022-10-04T07:48:18;15.90;99.90
70726;DHT22;58304;53.104;6.022;2022-10-04T07:50:59;15.70;99.90
70726;DHT22;58304;53.104;6.022;2022-10-04T07:56:33;15.10;99.90
70726;DHT22;58304;53.104;6.022;2022-10-04T08:05:22;19.10;99.90
70726;DHT22;58304;53.104;6.022;2022-10-04T08:13:57;20.70;99.90
70726;DHT22;58304;53.104;6.022;2022-10-04T08:16:36;22.00;99.90
70726;DHT22;58304;53.104;6.022;2022-10-04T08:25:17;25.30;99.90
70726;DHT22;58304;53.104;6.022;2022-10-04T08:28:02;26.00;99.90
70726;DHT22;58304;53.104;6.022;2022-10-04T08:36:19;27.50;95.70
70726;DHT22;58304;53.104;6.022;2022-10-04T08:38:51;27.40;95.00
70726;DHT22;58304;53.104;6.022;2022-10-04T08:47:47;28.50;90.10
70726;DHT22;58304;53.104;6.022;2022-10-04T09:06:53;29.10;83.10
70726;DHT22;58304;53.104;6.022;2022-10-04T09:13:00;29.10;81.70
70726;DHT22;58304;53.104;6.022;2022-10-04T09:21:07;29.60;78.50
70726;DHT22;58304;53.104;6.022;2022-10-04T09:26:43;29.60;76.20
70726;DHT22;58304;53.104;6.022;2022-10-04T09:32:37;29.70;76.30
70726;DHT22;58304;53.104;6.022;2022-10-04T09:40:56;29.90;75.20
70726;DHT22;58304;53.104;6.022;2022-10-04T10:01:13;26.10;77.80
70726;DHT22;58304;53.104;6.022;2022-10-04T10:18:33;23.40;84.70
70726;DHT22;58304;53.104;6.022;2022-10-04T10:21:28;23.10;85.30
70726;DHT22;58304;53.104;6.022;2022-10-04T10:29:19;22.20;90.90
70726;DHT22;58304;53.104;6.022;2022-10-04T10:40:41;22.40;91.30
70726;DHT22;58304;53.104;6.022;2022-10-04T10:55:02;24.40;88.60
70726;DHT22;58304;53.104;6.022;2022-10-04T11:04:09;24.30;88.10
70726;DHT22;58304;53.104;6.022;2022-10-04T11:06:22;24.50;89.00
70726;DHT22;58304;53.104;6.022;2022-10-04T11:40:08;23.90;90.80
70726;DHT22;58304;53.104;6.022;2022-10-04T11:43:12;23.60;91.00
70726;DHT22;58304;53.104;6.022;2022-10-04T11:51:19;23.20;90.70
70726;DHT22;58304;53.104;6.022;2022-10-04T11:59:57;24.00;90.70
70726;DHT22;58304;53.104;6.022;2022-10-04T12:03:00;24.30;90.70
70726;DHT22;58304;53.104;6.022;2022-10-04T12:06:13;24.50;90.60
70726;DHT22;58304;53.104;6.022;2022-10-04T12:08:59;24.30;90.10
70726;DHT22;58304;53.104;6.022;2022-10-04T12:11:49;24.10;91.20
70726;DHT22;58304;53.104;6.022;2022-10-04T12:23:59;24.20;90.30
70726;DHT22;58304;53.104;6.022;2022-10-04T12:27:17;24.00;90.00
70726;DHT22;58304;53.104;6.022;2022-10-04T12:43:43;24.10;91.00
70726;DHT22;58304;53.104;6.022;2022-10-04T12:46:23;24.10;90.50
70726;DHT22;58304;53.104;6.022;2022-10-04T12:51:34;24.40;89.00
70726;DHT22;58304;53.104;6.022;2022-10-04T13:05:33;24.50;88.80
70726;DHT22;58304;53.104;6.022;2022-10-04T13:18:59;23.60;89.90
70726;DHT22;58304;53.104;6.022;2022-10-04T13:24:23;23.60;91.10
70726;DHT22;58304;53.104;6.022;2022-10-04T13:27:02;24.10;90.40
70726;DHT22;58304;53.104;6.022;2022-10-04T13:30:12;23.80;90.50
70726;DHT22;58304;53.104;6.022;2022-10-04T13:32:39;23.90;90.70
70726;DHT22;58304;53.104;6.022;2022-10-04T13:35:17;23.90;91.10
70726;DHT22;58304;53.104;6.022;2022-10-04T13:46:23;23.30;91.00
70726;DHT22;58304;53.104;6.022;2022-10-04T13:51:58;23.10;90.00
70726;DHT22;58304;53.104;6.022;2022-10-04T14:01:02;22.50;91.50
70726;DHT22;58304;53.104;6.022;2022-10-04T14:15:08;22.70;90.50
70726;DHT22;58304;53.104;6.022;2022-10-04T14:18:19;22.70;90.20
70726;DHT22;58304;53.104;6.022;2022-10-04T14:27:40;23.00;90.10
70726;DHT22;58304;53.104;6.022;2022-10-04T14:30:55;23.10;89.30
70726;DHT22;58304;53.104;6.022;2022-10-04T14:58:01;21.20;92.30
70726;DHT22;58304;53.104;6.022;2022-10-04T15:03:16;20.50;92.90
70726;DHT22;58304;53.104;6.022;2022-10-04T15:10:57;20.20;93.30
70726;DHT22;58304;53.104;6.022;2022-10-04T15:13:53;20.10;93.40
70726;DHT22;58304;53.104;6.022;2022-10-04T15:16:42;20.00;94.70
70726;DHT22;58304;53.104;6.022;2022-10-04T15:24:48;19.90;95.50
70726;DHT22;58304;53.104;6.022;2022-10-04T15:35:48;19.70;95.60
70726;DHT22;58304;53.104;6.022;2022-10-04T15:43:43;19.20;95.80
70726;DHT22;58304;53.104;6.022;2022-10-04T15:48:53;18.90;97.20
70726;DHT22;58304;53.104;6.022;2022-10-04T15:54:30;18.70;97.30
70726;DHT22;58304;53.104;6.022;2022-10-04T16:02:50;18.40;98.50
70726;DHT22;58304;53.104;6.022;2022-10-04T16:08:55;18.10;99.10
70726;DHT22;58304;53.104;6.022;2022-10-04T16:22:25;17.80;99.90
70726;DHT22;58304;53.104;6.022;2022-10-04T16:24:56;17.70;99.90
70726;DHT22;58304;53.104;6.022;2022-10-04T16:30:23;17.50;99.90
70726;DHT22;58304;53.104;6.022;2022-10-04T16:36:02;17.50;99.90
70726;DHT22;58304;53.104;6.022;2022-10-04T16:38:33;17.40;99.90
70726;DHT22;58304;53.104;6.022;2022-10-04T16:41:13;17.40;99.90
70726;DHT22;58304;53.104;6.022;2022-10-04T16:43:52;17.30;99.90
70726;DHT22;58304;53.104;6.022;2022-10-04T16:46:34;17.40;99.90
70726;DHT22;58304;53.104;6.022;2022-10-04T16:49:32;17.30;99.90
70726;DHT22;58304;53.104;6.022;2022-10-04T16:57:30;17.20;99.90
70726;DHT22;58304;53.104;6.022;2022-10-04T16:59:58;17.10;99.90
70726;DHT22;58304;53.104;6.022;2022-10-04T17:13:31;16.70;99.90
70726;DHT22;58304;53.104;6.022;2022-10-04T17:16:12;16.70;99.90
70726;DHT22;58304;53.104;6.022;2022-10-04T17:19:14;16.70;99.90
70726;DHT22;58304;53.104;6.022;2022-10-04T17:21:48;16.60;99.90
70726;DHT22;58304;53.104;6.022;2022-10-04T17:30:21;16.40;99.90
70726;DHT22;58304;53.104;6.022;2022-10-04T17:33:13;16.40;99.90
70726;DHT22;58304;53.104;6.022;2022-10-04T17:46:54;16.20;99.90
70726;DHT22;58304;53.104;6.022;2022-10-04T17:52:39;16.20;99.90
70726;DHT22;58304;53.104;6.022;2022-10-04T17:55:41;16.20;99.90
70726;DHT22;58304;53.104;6.022;2022-10-04T17:58:16;16.20;99.90
70726;DHT22;58304;53.104;6.022;2022-10-04T18:01:04;16.10;99.90
70726;DHT22;58304;53.104;6.022;2022-10-04T18:03:39;16.00;99.90
70726;DHT22;58304;53.104;6.022;2022-10-04T18:11:59;16.00;99.90
70726;DHT22;58304;53.104;6.022;2022-10-04T18:17:02;15.90;99.90
70726;DHT22;58304;53.104;6.022;2022-10-04T18:24:35;16.00;99.90
70726;DHT22;58304;53.104;6.022;2022-10-04T18:29:56;16.00;99.90
70726;DHT22;58304;53.104;6.022;2022-10-04T18:34:55;16.00;99.90
70726;DHT22;58304;53.104;6.022;2022-10-04T18:37:35;16.00;99.90
70726;DHT22;58304;53.104;6.022;2022-10-04T18:40:26;16.10;99.90
70726;DHT22;58304;53.104;6.022;2022-10-04T18:42:57;16.10;99.90
70726;DHT22;58304;53.104;6.022;2022-10-04T18:45:27;16.10;99.90
70726;DHT22;58304;53.104;6.022;2022-10-04T18:47:54;16.10;99.90
70726;DHT22;58304;53.104;6.022;2022-10-04T18:50:36;16.10;99.90
70726;DHT22;58304;53.104;6.022;2022-10-04T18:56:01;16.20;99.90
70726;DHT22;58304;53.104;6.022;2022-10-04T18:59:10;16.20;99.90
70726;DHT22;58304;53.104;6.022;2022-10-04T19:02:20;16.10;99.90
70726;DHT22;58304;53.104;6.022;2022-10-04T19:07:31;16.20;99.90
70726;DHT22;58304;53.104;6.022;2022-10-04T19:10:26;16.10;99.90
70726;DHT22;58304;53.104;6.022;2022-10-04T19:13:28;16.10;99.90
70726;DHT22;58304;53.104;6.022;2022-10-04T19:24:45;16.10;99.90
70726;DHT22;58304;53.104;6.022;2022-10-04T19:27:47;16.10;99.90
70726;DHT22;58304;53.104;6.022;2022-10-04T19:45:05;16.20;99.90
70726;DHT22;58304;53.104;6.022;2022-10-04T19:47:52;16.20;99.90
70726;DHT22;58304;53.104;6.022;2022-10-04T19:50:29;16.20;99.90
70726;DHT22;58304;53.104;6.022;2022-10-04T19:55:47;16.20;99.90
70726;DHT22;58304;53.104;6.022;2022-10-04T20:00:50;16.20;99.90
70726;DHT22;58304;53.104;6.022;2022-10-04T20:03:15;16.20;99.90
70726;DHT22;58304;53.104;6.022;2022-10-04T20:05:45;16.10;99.90
70726;DHT22;58304;53.104;6.022;2022-10-04T20:08:13;16.10;99.90
70726;DHT22;58304;53.104;6.022;2022-10-04T20:10:40;16.10;99.90
70726;DHT22;58304;53.104;6.022;2022-10-04T20:13:16;16.10;99.90
70726;DHT22;58304;53.104;6.022;2022-10-04T20:15:50;16.10;99.90
70726;DHT22;58304;53.104;6.022;2022-10-04T20:29:07;16.10;99.90
70726;DHT22;58304;53.104;6.022;2022-10-04T20:36:54;16.10;99.90
70726;DHT22;58304;53.104;6.022;2022-10-04T20:42:37;16.00;99.90
70726;DHT22;58304;53.104;6.022;2022-10-04T20:50:14;16.10;99.90
70726;DHT22;58304;53.104;6.022;2022-10-04T20:52:51;16.10;99.90
70726;DHT22;58304;53.104;6.022;2022-10-04T20:55:36;16.10;99.90
70726;DHT22;58304;53.104;6.022;2022-10-04T21:00:57;16.10;99.90
70726;DHT22;58304;53.104;6.022;2022-10-04T21:03:24;16.10;99.90
70726;DHT22;58304;53.104;6.022;2022-10-04T21:06:05;16.10;99.90
70726;DHT22;58304;53.104;6.022;2022-10-04T21:08:32;16.00;99.90
70726;DHT22;58304;53.104;6.022;2022-10-04T21:13:54;16.00;99.90
70726;DHT22;58304;53.104;6.022;2022-10-04T21:16:46;16.00;99.90
70726;DHT22;58304;53.104;6.022;2022-10-04T21:22:05;16.00;99.90
70726;DHT22;58304;53.104;6.022;2022-10-04T21:25:04;16.00;99.90
70726;DHT22;58304;53.104;6.022;2022-10-04T21:27:32;16.00;99.90
70726;DHT22;58304;53.104;6.022;2022-10-04T21:30:04;16.00;99.90
70726;DHT22;58304;53.104;6.022;2022-10-04T21:32:35;16.00;99.90
70726;DHT22;58304;53.104;6.022;2022-10-04T21:35:02;16.10;99.90
70726;DHT22;58304;53.104;6.022;2022-10-04T21:37:28;16.10;99.90
70726;DHT22;58304;53.104;6.022;2022-10-04T21:39:54;16.00;99.90
70726;DHT22;58304;53.104;6.022;2022-10-04T21:42:20;16.00;99.90
70726;DHT22;58304;53.104;6.022;2022-10-04T21:44:46;16.00;99.90
70726;DHT22;58304;53.104;6.022;2022-10-04T21:47:12;16.00;99.90
70726;DHT22;58304;53.104;6.022;2022-10-04T21:49:38;16.00;99.90
70726;DHT22;58304;53.104;6.022;2022-10-04T21:52:04;16.00;99.90
70726;DHT22;58304;53.104;6.022;2022-10-04T21:54:30;16.00;99.90
70726;DHT22;58304;53.104;6.022;2022-10-04T21:56:56;16.00;99.90
70726;DHT22;58304;53.104;6.022;2022-10-04T21:59:21;16.00;99.90
70726;DHT22;58304;53.104;6.022;2022-10-04T22:01:47;16.00;99.90
70726;DHT22;58304;53.104;6.022;2022-10-04T22:04:13;16.00;99.90
70726;DHT22;58304;53.104;6.022;2022-10-04T22:06:38;16.00;99.90
70726;DHT22;58304;53.104;6.022;2022-10-04T22:09:04;16.10;99.90
70726;DHT22;58304;53.104;6.022;2022-10-04T22:11:30;16.00;99.90
70726;DHT22;58304;53.104;6.022;2022-10-04T22:13:56;16.00;99.90
70726;DHT22;58304;53.104;6.022;2022-10-04T22:16:21;16.10;99.90
70726;DHT22;58304;53.104;6.022;2022-10-04T22:18:47;16.00;99.90
70726;DHT22;58304;53.104;6.022;2022-10-04T22:21:13;16.00;99.90
70726;DHT22;58304;53.104;6.022;2022-10-04T22:23:40;16.00;99.90
70726;DHT22;58304;53.104;6.022;2022-10-04T22:26:18;16.00;99.90
70726;DHT22;58304;53.104;6.022;2022-10-04T22:28:49;16.00;99.90
70726;DHT22;58304;53.104;6.022;2022-10-04T22:31:24;15.90;99.90
70726;DHT22;58304;53.104;6.022;2022-10-04T22:33:50;15.90;99.90
70726;DHT22;58304;53.104;6.022;2022-10-04T22:36:23;15.90;99.90
70726;DHT22;58304;53.104;6.022;2022-10-04T22:41:54;15.90;99.90
70726;DHT22;58304;53.104;6.022;2022-10-04T22:46:50;15.90;99.90
70726;DHT22;58304;53.104;6.022;2022-10-04T22:49:20;15.80;99.90
70726;DHT22;58304;53.104;6.022;2022-10-04T22:51:48;15.80;99.90
70726;DHT22;58304;53.104;6.022;2022-10-04T22:54:17;15.80;99.90
70726;DHT22;58304;53.104;6.022;2022-10-04T22:56:43;15.90;99.90
70726;DHT22;58304;53.104;6.022;2022-10-04T22:59:13;15.80;99.90
70726;DHT22;58304;53.104;6.022;2022-10-04T23:01:41;15.80;99.90
70726;DHT22;58304;53.104;6.022;2022-10-04T23:04:24;15.80;99.90
70726;DHT22;58304;53.104;6.022;2022-10-04T23:06:51;15.80;99.90
70726;DHT22;58304;53.104;6.022;2022-10-04T23:09:18;15.70;99.90
70726;DHT22;58304;53.104;6.022;2022-10-04T23:11:44;15.80;99.90
70726;DHT22;58304;53.104;6.022;2022-10-04T23:14:10;15.80;99.90
70726;DHT22;58304;53.104;6.022;2022-10-04T23:16:36;15.80;99.90
70726;DHT22;58304;53.104;6.022;2022-10-04T23:19:15;15.80;99.90
70726;DHT22;58304;53.104;6.022;2022-10-04T23:21:47;15.80;99.90
70726;DHT22;58304;53.104;6.022;2022-10-04T23:24:17;15.80;99.90
70726;DHT22;58304;53.104;6.022;2022-10-04T23:26:45;15.80;99.90
70726;DHT22;58304;53.104;6.022;2022-10-04T23:29:25;15.80;99.90
70726;DHT22;58304;53.104;6.022;2022-10-04T23:31:51;15.80;99.90
70726;DHT22;58304;53.104;6.022;2022-10-04T23:34:20;15.80;99.90
70726;DHT22;58304;53.104;6.022;2022-10-04T23:36:48;15.80;99.90
70726;DHT22;58304;53.104;6.022;2022-10-04T23:39:26;15.80;99.90
70726;DHT22;58304;53.104;6.022;2022-10-04T23:41:54;15.80;99.90
70726;DHT22;58304;53.104;6.022;2022-10-04T23:44:23;15.80;99.90
70726;DHT22;58304;53.104;6.022;2022-10-04T23:46:50;15.80;99.90
70726;DHT22;58304;53.104;6.022;2022-10-04T23:49:17;15.80;99.90
70726;DHT22;58304;53.104;6.022;2022-10-04T23:51:45;15.80;99.90
70726;DHT22;58304;53.104;6.022;2022-10-04T23:54:15;15.80;99.90
70726;DHT22;58304;53.104;6.022;2022-10-04T23:56:43;15.80;99.90
70726;DHT22;58304;53.104;6.022;2022-10-04T23:59:17;15.70;99.90
